createdAt,value
2022-12-01T00:01:31.145Z,37.78
2022-12-01T00:03:04.236Z,36.55
2022-12-01T00:04:36.032Z,40.67
2022-12-01T00:06:15.979Z,41.58
2022-12-01T00:07:50.529Z,42.75
2022-12-01T00:09:40.996Z,39.67
2022-12-01T00:11:12.810Z,44.33
2022-12-01T00:12:44.578Z,46.60
2022-12-01T00:14:16.755Z,43.97
2022-12-01T00:15:48.498Z,46.65
2022-12-01T00:17:21.058Z,43.83
2022-12-01T00:18:53.644Z,38.97
2022-12-01T00:20:25.388Z,39.17
2022-12-01T00:21:57.340Z,43.28
2022-12-01T00:23:29.125Z,39.80
2022-12-01T00:25:00.865Z,38.53
2022-12-01T00:26:32.613Z,39.38
2022-12-01T00:28:04.596Z,33.75
2022-12-01T00:29:36.364Z,40.50
2022-12-01T00:31:09.370Z,37.38
2022-12-01T00:32:41.109Z,44.78
2022-12-01T00:34:22.793Z,44.78
2022-12-01T00:36:01.837Z,39.25
2022-12-01T00:37:34.759Z,39.97
2022-12-01T00:39:06.516Z,46.10
2022-12-01T00:40:38.228Z,42.00
2022-12-01T00:42:13.218Z,43.63
2022-12-01T00:43:45.381Z,39.88
2022-12-01T00:45:17.245Z,36.75
2022-12-01T00:46:49.096Z,38.25
2022-12-01T00:48:20.927Z,39.38
2022-12-01T00:49:52.733Z,41.13
2022-12-01T00:51:24.629Z,40.17
2022-12-01T00:52:56.478Z,37.85
2022-12-01T00:54:28.545Z,41.70
2022-12-01T00:56:00.507Z,39.65
2022-12-01T00:57:32.309Z,34.42
2022-12-01T00:59:04.152Z,35.67
2022-12-01T01:00:38.762Z,35.33
2022-12-01T01:02:10.845Z,38.85
2022-12-01T01:03:42.658Z,37.15
2022-12-01T01:05:14.468Z,35.10
2022-12-01T01:06:46.473Z,35.35
2022-12-01T01:08:18.246Z,34.35
2022-12-01T01:09:50.229Z,35.88
2022-12-01T01:11:22.424Z,37.53
2022-12-01T01:12:54.157Z,35.70
2022-12-01T01:14:26.169Z,37.00
2022-12-01T01:16:07.170Z,37.15
2022-12-01T01:17:38.932Z,35.90
2022-12-01T01:19:10.668Z,35.10
2022-12-01T01:20:45.402Z,35.47
2022-12-01T01:22:17.180Z,33.40
2022-12-01T01:23:50.265Z,36.45
2022-12-01T01:25:22.878Z,37.13
2022-12-01T01:26:55.518Z,34.58
2022-12-01T01:28:27.304Z,35.75
2022-12-01T01:29:59.073Z,37.63
2022-12-01T01:31:31.380Z,37.67
2022-12-01T01:33:03.224Z,38.92
2022-12-01T01:34:35.097Z,37.95
2022-12-01T01:36:07.526Z,36.40
2022-12-01T01:37:39.730Z,35.60
2022-12-01T01:39:11.499Z,34.53
2022-12-01T01:40:44.956Z,34.17
2022-12-01T01:42:19.651Z,36.95
2022-12-01T01:44:01.894Z,36.90
2022-12-01T01:45:33.932Z,34.40
2022-12-01T01:47:06.726Z,35.88
2022-12-01T01:48:41.565Z,34.58
2022-12-01T01:50:16.635Z,35.28
2022-12-01T01:51:53.940Z,37.90
2022-12-01T01:53:25.919Z,33.67
2022-12-01T01:54:58.439Z,38.42
2022-12-01T01:56:31.024Z,38.25
2022-12-01T01:58:07.557Z,34.97
2022-12-01T01:59:45.445Z,37.13
2022-12-01T02:01:17.451Z,35.53
2022-12-01T02:02:50.565Z,34.42
2022-12-01T02:04:24.357Z,37.28
2022-12-01T02:06:01.782Z,36.97
2022-12-01T02:07:37.964Z,37.72
2022-12-01T02:09:12.398Z,37.60
2022-12-01T02:10:47.224Z,37.95
2022-12-01T02:12:59.045Z,38.22
2022-12-01T02:14:45.929Z,39.95
2022-12-01T02:16:39.504Z,36.25
2022-12-01T02:18:22.886Z,38.63
2022-12-01T02:20:11.372Z,36.95
2022-12-01T02:22:24.100Z,35.58
2022-12-01T02:24:25.504Z,37.00
2022-12-01T02:26:19.828Z,37.42
2022-12-01T02:28:13.432Z,36.33
2022-12-01T02:29:58.243Z,35.53
2022-12-01T02:31:53.866Z,35.90
2022-12-01T02:33:45.686Z,35.38
2022-12-01T02:35:35.905Z,35.65
2022-12-01T02:37:10.428Z,33.28
2022-12-01T02:38:54.376Z,33.50
2022-12-01T02:40:37.953Z,35.95
2022-12-01T02:42:40.002Z,40.03
2022-12-01T02:44:20.818Z,40.33
2022-12-01T02:46:15.889Z,41.83
2022-12-01T02:47:51.808Z,40.30
2022-12-01T02:49:29.671Z,40.92
2022-12-01T02:51:08.603Z,46.33
2022-12-01T02:52:41.200Z,43.13
2022-12-01T02:54:15.196Z,34.55
2022-12-01T02:55:53.603Z,41.47
2022-12-01T02:57:26.061Z,41.00
2022-12-01T02:58:57.819Z,38.65
2022-12-01T03:00:30.858Z,37.08
2022-12-01T03:02:24.745Z,41.80
2022-12-01T03:04:15.375Z,39.45
2022-12-01T03:06:03.252Z,38.50
2022-12-01T03:07:44.829Z,40.70
2022-12-01T03:09:37.061Z,37.38
2022-12-01T03:11:08.903Z,33.00
2022-12-01T03:13:02.646Z,33.38
2022-12-01T03:14:49.491Z,38.67
2022-12-01T03:16:32.252Z,38.85
2022-12-01T03:18:31.581Z,36.35
2022-12-01T03:20:16.433Z,31.67
2022-12-01T03:22:12.541Z,31.42
2022-12-01T03:23:47.899Z,35.58
2022-12-01T03:25:22.829Z,38.33
2022-12-01T03:26:58.317Z,39.08
2022-12-01T03:28:34.769Z,41.20
2022-12-01T03:30:10.798Z,43.45
2022-12-01T03:31:48.637Z,39.92
2022-12-01T03:33:52.288Z,40.65
2022-12-01T03:35:29.576Z,37.75
2022-12-01T03:37:07.455Z,36.97
2022-12-01T03:38:42.872Z,38.80
2022-12-01T03:40:18.717Z,34.17
2022-12-01T03:42:02.331Z,39.45
2022-12-01T03:43:40.550Z,35.67
2022-12-01T03:45:18.255Z,40.50
2022-12-01T03:47:07.157Z,39.08
2022-12-01T03:48:40.535Z,36.45
2022-12-01T03:50:14.318Z,33.67
2022-12-01T03:52:09.357Z,39.45
2022-12-01T03:54:10.196Z,32.88
2022-12-01T03:55:44.955Z,35.10
2022-12-01T03:57:31.763Z,33.95
2022-12-01T03:59:07.876Z,42.75
2022-12-01T04:00:40.228Z,35.20
2022-12-01T04:02:12.520Z,42.53
2022-12-01T04:03:46.832Z,39.15
2022-12-01T04:05:23.837Z,39.78
2022-12-01T04:06:56.997Z,38.83
2022-12-01T04:08:30.789Z,39.55
2022-12-01T04:10:02.610Z,42.22
2022-12-01T04:11:52.891Z,37.35
2022-12-01T04:13:25.692Z,40.97
2022-12-01T04:14:57.928Z,42.17
2022-12-01T04:16:29.756Z,45.83
2022-12-01T04:18:01.557Z,41.13
2022-12-01T04:19:33.312Z,43.00
2022-12-01T04:21:05.193Z,43.08
2022-12-01T04:22:37.104Z,46.38
2022-12-01T04:24:09.072Z,42.50
2022-12-01T04:25:40.779Z,43.30
2022-12-01T04:27:12.936Z,46.30
2022-12-01T04:28:45.753Z,47.10
2022-12-01T04:30:17.606Z,47.03
2022-12-01T04:31:49.532Z,41.10
2022-12-01T04:33:21.901Z,50.17
2022-12-01T04:34:53.668Z,43.97
2022-12-01T04:36:26.343Z,46.60
2022-12-01T04:37:58.088Z,47.13
2022-12-01T04:39:29.869Z,45.22
2022-12-01T04:41:01.621Z,50.90
2022-12-01T04:42:33.391Z,43.58
2022-12-01T04:44:05.691Z,43.10
2022-12-01T04:45:38.348Z,44.35
2022-12-01T04:47:10.109Z,47.88
2022-12-01T04:48:41.959Z,48.92
2022-12-01T04:50:13.713Z,48.33
2022-12-01T04:51:45.468Z,47.28
2022-12-01T04:53:17.207Z,50.50
2022-12-01T04:54:48.976Z,46.00
2022-12-01T04:56:20.899Z,44.17
2022-12-01T04:57:52.644Z,46.28
2022-12-01T04:59:24.394Z,44.75
2022-12-01T05:01:02.217Z,45.70
2022-12-01T05:02:34.060Z,49.53
2022-12-01T05:04:06.500Z,56.25
2022-12-01T05:05:38.311Z,55.95
2022-12-01T05:07:10.413Z,55.72
2022-12-01T05:08:42.455Z,52.58
2022-12-01T05:10:14.487Z,51.38
2022-12-01T05:11:46.269Z,48.40
2022-12-01T05:13:18.008Z,47.70
2022-12-01T05:14:50.361Z,48.45
2022-12-01T05:16:31.997Z,61.13
2022-12-01T05:18:04.025Z,61.30
2022-12-01T05:19:54.306Z,56.78
2022-12-01T05:21:26.097Z,48.95
2022-12-01T05:23:05.247Z,48.78
2022-12-01T05:24:37.387Z,47.33
2022-12-01T05:26:09.609Z,53.92
2022-12-01T05:27:41.341Z,51.38
2022-12-01T05:29:13.853Z,51.50
2022-12-01T05:30:46.282Z,52.13
2022-12-01T05:32:18.029Z,53.28
2022-12-01T05:33:49.781Z,50.47
2022-12-01T05:35:21.553Z,53.72
2022-12-01T05:36:53.341Z,50.97
2022-12-01T05:38:25.147Z,52.65
2022-12-01T05:39:56.902Z,57.40
2022-12-01T05:41:28.683Z,55.60
2022-12-01T05:43:00.600Z,56.60
2022-12-01T05:44:32.365Z,56.67
2022-12-01T05:46:04.657Z,53.28
2022-12-01T05:47:36.604Z,47.60
2022-12-01T05:49:08.349Z,50.53
2022-12-01T05:50:40.266Z,48.13
2022-12-01T05:52:12.211Z,50.45
2022-12-01T05:53:44.720Z,62.35
2022-12-01T05:55:17.044Z,62.25
2022-12-01T05:56:48.771Z,60.25
2022-12-01T05:58:22.204Z,66.95
2022-12-01T05:59:54.017Z,64.78
2022-12-01T06:01:25.811Z,66.90
2022-12-01T06:02:57.556Z,60.33
2022-12-01T06:04:29.408Z,57.55
2022-12-01T06:06:01.379Z,59.33
2022-12-01T06:07:34.755Z,58.22
2022-12-01T06:09:06.534Z,54.25
2022-12-01T06:10:38.283Z,53.08
2022-12-01T06:12:09.992Z,68.45
2022-12-01T06:13:41.800Z,69.75
2022-12-01T06:15:14.186Z,58.13
2022-12-01T06:16:45.980Z,60.17
2022-12-01T06:18:17.740Z,63.45
2022-12-01T06:19:49.697Z,55.50
2022-12-01T06:21:21.605Z,62.95
2022-12-01T06:22:53.434Z,60.92
